sensor_id;sensor_type;location;lat;lon;timestamp;pressure;altitude;pressure_sealevel;temperature;humidity
11936;BME280;6027;48.576;9.180;2022-07-06T00:01:15;97446.53;;;17.26;100.00
11936;BME280;6027;48.576;9.180;2022-07-06T00:03:41;97455.59;;;17.25;100.00
11936;BME280;6027;48.576;9.180;2022-07-06T00:06:06;97459.13;;;17.12;100.00
11936;BME280;6027;48.576;9.180;2022-07-06T00:08:32;97449.44;;;17.11;100.00
11936;BME280;6027;48.576;9.180;2022-07-06T00:10:57;97451.69;;;17.14;100.00
11936;BME280;6027;48.576;9.180;2022-07-06T00:13:23;97455.19;;;17.21;100.00
11936;BME280;6027;48.576;9.180;2022-07-06T00:15:48;97455.44;;;16.93;100.00
11936;BME280;6027;48.576;9.180;2022-07-06T00:18:14;97452.38;;;16.83;100.00
11936;BME280;6027;48.576;9.180;2022-07-06T00:20:39;97452.38;;;16.90;100.00
11936;BME280;6027;48.576;9.180;2022-07-06T00:23:05;97452.16;;;16.85;100.00
11936;BME280;6027;48.576;9.180;2022-07-06T00:25:30;97445.56;;;16.87;100.00
11936;BME280;6027;48.576;9.180;2022-07-06T00:27:56;97454.63;;;16.86;100.00
11936;BME280;6027;48.576;9.180;2022-07-06T00:30:21;97449.28;;;16.80;100.00
11936;BME280;6027;48.576;9.180;2022-07-06T00:32:47;97460.22;;;16.72;100.00
11936;BME280;6027;48.576;9.180;2022-07-06T00:35:12;97464.06;;;16.63;100.00
11936;BME280;6027;48.576;9.180;2022-07-06T00:37:37;97462.88;;;16.65;100.00
11936;BME280;6027;48.576;9.180;2022-07-06T00:40:03;97455.84;;;16.57;100.00
11936;BME280;6027;48.576;9.180;2022-07-06T00:42:29;97442.28;;;16.33;100.00
11936;BME280;6027;48.576;9.180;2022-07-06T00:44:54;97458.31;;;16.33;100.00
11936;BME280;6027;48.576;9.180;2022-07-06T00:47:20;97456.44;;;16.40;100.00
11936;BME280;6027;48.576;9.180;2022-07-06T00:49:45;97443.72;;;16.48;100.00
11936;BME280;6027;48.576;9.180;2022-07-06T00:52:29;97457.06;;;16.55;100.00
11936;BME280;6027;48.576;9.180;2022-07-06T00:54:55;97458.94;;;16.48;100.00
11936;BME280;6027;48.576;9.180;2022-07-06T00:57:20;97465.72;;;16.50;100.00
11936;BME280;6027;48.576;9.180;2022-07-06T00:59:46;97459.97;;;16.53;100.00
11936;BME280;6027;48.576;9.180;2022-07-06T01:02:11;97452.53;;;16.55;100.00
11936;BME280;6027;48.576;9.180;2022-07-06T01:04:37;97455.44;;;16.54;100.00
11936;BME280;6027;48.576;9.180;2022-07-06T01:07:02;97455.03;;;16.50;100.00
11936;BME280;6027;48.576;9.180;2022-07-06T01:09:28;97448.03;;;16.49;100.00
11936;BME280;6027;48.576;9.180;2022-07-06T01:11:53;97453.19;;;16.51;100.00
11936;BME280;6027;48.576;9.180;2022-07-06T01:14:20;97445.78;;;16.46;100.00
11936;BME280;6027;48.576;9.180;2022-07-06T01:16:45;97460.75;;;16.41;100.00
11936;BME280;6027;48.576;9.180;2022-07-06T01:19:11;97448.22;;;16.28;100.00
11936;BME280;6027;48.576;9.180;2022-07-06T01:21:39;97449.03;;;16.22;100.00
11936;BME280;6027;48.576;9.180;2022-07-06T01:24:06;97455.41;;;16.21;100.00
11936;BME280;6027;48.576;9.180;2022-07-06T01:26:31;97445.53;;;16.15;100.00
11936;BME280;6027;48.576;9.180;2022-07-06T01:28:57;97449.44;;;16.12;100.00
11936;BME280;6027;48.576;9.180;2022-07-06T01:31:26;97445.94;;;16.18;100.00
11936;BME280;6027;48.576;9.180;2022-07-06T01:33:53;97443.06;;;16.20;100.00
11936;BME280;6027;48.576;9.180;2022-07-06T01:36:21;97454.97;;;16.17;100.00
11936;BME280;6027;48.576;9.180;2022-07-06T01:38:52;97439.78;;;16.11;100.00
11936;BME280;6027;48.576;9.180;2022-07-06T01:41:18;97438.13;;;16.17;100.00
11936;BME280;6027;48.576;9.180;2022-07-06T01:43:44;97434.44;;;16.11;100.00
11936;BME280;6027;48.576;9.180;2022-07-06T01:46:10;97446.09;;;15.97;100.00
11936;BME280;6027;48.576;9.180;2022-07-06T01:48:36;97438.31;;;16.02;100.00
11936;BME280;6027;48.576;9.180;2022-07-06T01:51:01;97443.03;;;15.94;100.00
11936;BME280;6027;48.576;9.180;2022-07-06T01:53:27;97446.72;;;15.99;100.00
11936;BME280;6027;48.576;9.180;2022-07-06T01:55:52;97443.00;;;15.87;100.00
11936;BME280;6027;48.576;9.180;2022-07-06T01:58:18;97442.59;;;15.83;100.00
11936;BME280;6027;48.576;9.180;2022-07-06T02:00:43;97440.94;;;15.76;100.00
11936;BME280;6027;48.576;9.180;2022-07-06T02:03:09;97451.19;;;15.79;100.00
11936;BME280;6027;48.576;9.180;2022-07-06T02:05:34;97444.19;;;15.78;100.00
11936;BME280;6027;48.576;9.180;2022-07-06T02:08:00;97452.59;;;15.68;100.00
11936;BME280;6027;48.576;9.180;2022-07-06T02:10:25;97450.31;;;15.59;100.00
11936;BME280;6027;48.576;9.180;2022-07-06T02:12:51;97447.03;;;15.57;100.00
11936;BME280;6027;48.576;9.180;2022-07-06T02:15:16;97450.72;;;15.56;100.00
11936;BME280;6027;48.576;9.180;2022-07-06T02:17:42;97446.59;;;15.60;100.00
11936;BME280;6027;48.576;9.180;2022-07-06T02:20:08;97437.19;;;15.57;100.00
11936;BME280;6027;48.576;9.180;2022-07-06T02:22:34;97442.09;;;15.60;100.00
11936;BME280;6027;48.576;9.180;2022-07-06T02:24:59;97438.88;;;15.71;100.00
11936;BME280;6027;48.576;9.180;2022-07-06T02:27:25;97432.66;;;15.58;100.00
11936;BME280;6027;48.576;9.180;2022-07-06T02:29:50;97441.38;;;15.45;100.00
11936;BME280;6027;48.576;9.180;2022-07-06T02:32:16;97447.03;;;15.57;100.00
11936;BME280;6027;48.576;9.180;2022-07-06T02:34:42;97446.56;;;15.53;100.00
11936;BME280;6027;48.576;9.180;2022-07-06T02:37:07;97442.22;;;15.45;100.00
11936;BME280;6027;48.576;9.180;2022-07-06T02:39:32;97457.84;;;15.48;100.00
11936;BME280;6027;48.576;9.180;2022-07-06T02:41:58;97459.44;;;15.43;100.00
11936;BME280;6027;48.576;9.180;2022-07-06T02:44:23;97463.94;;;15.36;100.00
11936;BME280;6027;48.576;9.180;2022-07-06T02:46:49;97455.94;;;15.36;100.00
11936;BME280;6027;48.576;9.180;2022-07-06T02:49:14;97467.00;;;15.33;100.00
11936;BME280;6027;48.576;9.180;2022-07-06T02:51:40;97461.19;;;15.23;100.00
11936;BME280;6027;48.576;9.180;2022-07-06T02:54:05;97462.44;;;15.27;100.00
11936;BME280;6027;48.576;9.180;2022-07-06T02:56:30;97462.19;;;15.21;100.00
11936;BME280;6027;48.576;9.180;2022-07-06T02:58:56;97462.13;;;15.08;100.00
11936;BME280;6027;48.576;9.180;2022-07-06T03:01:21;97465.50;;;15.17;100.00
11936;BME280;6027;48.576;9.180;2022-07-06T03:03:47;97470.38;;;15.13;100.00
11936;BME280;6027;48.576;9.180;2022-07-06T03:06:12;97474.84;;;15.06;100.00
11936;BME280;6027;48.576;9.180;2022-07-06T03:08:38;97484.88;;;15.04;100.00
11936;BME280;6027;48.576;9.180;2022-07-06T03:11:03;97486.97;;;15.09;100.00
11936;BME280;6027;48.576;9.180;2022-07-06T03:13:29;97484.34;;;15.15;100.00
11936;BME280;6027;48.576;9.180;2022-07-06T03:15:55;97491.72;;;15.13;100.00
11936;BME280;6027;48.576;9.180;2022-07-06T03:18:20;97481.69;;;15.15;100.00
11936;BME280;6027;48.576;9.180;2022-07-06T03:20:46;97492.09;;;15.10;100.00
11936;BME280;6027;48.576;9.180;2022-07-06T03:23:11;97486.53;;;15.05;100.00
11936;BME280;6027;48.576;9.180;2022-07-06T03:25:37;97493.69;;;14.98;100.00
11936;BME280;6027;48.576;9.180;2022-07-06T03:28:02;97490.00;;;14.99;100.00
11936;BME280;6027;48.576;9.180;2022-07-06T03:30:28;97495.13;;;15.01;100.00
11936;BME280;6027;48.576;9.180;2022-07-06T03:32:53;97491.41;;;15.02;100.00
11936;BME280;6027;48.576;9.180;2022-07-06T03:35:19;97485.03;;;14.96;100.00
11936;BME280;6027;48.576;9.180;2022-07-06T03:37:44;97489.88;;;14.86;100.00
11936;BME280;6027;48.576;9.180;2022-07-06T03:40:11;97485.81;;;14.90;100.00
11936;BME280;6027;48.576;9.180;2022-07-06T03:42:37;97492.31;;;14.81;100.00
11936;BME280;6027;48.576;9.180;2022-07-06T03:45:06;97488.41;;;14.77;100.00
11936;BME280;6027;48.576;9.180;2022-07-06T03:47:31;97498.63;;;14.73;100.00
11936;BME280;6027;48.576;9.180;2022-07-06T03:49:57;97496.41;;;14.56;100.00
11936;BME280;6027;48.576;9.180;2022-07-06T03:52:22;97490.94;;;14.64;100.00
11936;BME280;6027;48.576;9.180;2022-07-06T03:54:48;97492.75;;;14.57;100.00
11936;BME280;6027;48.576;9.180;2022-07-06T03:57:13;97499.09;;;14.56;100.00
11936;BME280;6027;48.576;9.180;2022-07-06T03:59:39;97493.56;;;14.57;100.00
11936;BME280;6027;48.576;9.180;2022-07-06T04:02:05;97488.84;;;14.38;100.00
11936;BME280;6027;48.576;9.180;2022-07-06T04:04:31;97498.56;;;14.45;100.00
11936;BME280;6027;48.576;9.180;2022-07-06T04:06:56;97506.00;;;14.50;100.00
11936;BME280;6027;48.576;9.180;2022-07-06T04:09:22;97501.50;;;14.50;100.00
11936;BME280;6027;48.576;9.180;2022-07-06T04:11:47;97504.34;;;14.49;100.00
11936;BME280;6027;48.576;9.180;2022-07-06T04:14:13;97496.34;;;14.49;100.00
11936;BME280;6027;48.576;9.180;2022-07-06T04:16:39;97501.94;;;14.54;100.00
11936;BME280;6027;48.576;9.180;2022-07-06T04:19:04;97502.69;;;14.48;100.00
11936;BME280;6027;48.576;9.180;2022-07-06T04:21:30;97503.97;;;14.52;100.00
11936;BME280;6027;48.576;9.180;2022-07-06T04:23:56;97489.50;;;14.40;100.00
11936;BME280;6027;48.576;9.180;2022-07-06T04:26:21;97500.72;;;14.57;100.00
11936;BME280;6027;48.576;9.180;2022-07-06T04:28:46;97504.66;;;14.61;100.00
11936;BME280;6027;48.576;9.180;2022-07-06T04:31:12;97495.59;;;14.55;100.00
11936;BME280;6027;48.576;9.180;2022-07-06T04:33:41;97492.84;;;14.48;100.00
11936;BME280;6027;48.576;9.180;2022-07-06T04:36:08;97507.47;;;14.52;100.00
11936;BME280;6027;48.576;9.180;2022-07-06T04:38:34;97507.72;;;14.58;100.00
11936;BME280;6027;48.576;9.180;2022-07-06T04:40:59;97512.03;;;14.59;100.00
11936;BME280;6027;48.576;9.180;2022-07-06T04:43:25;97514.09;;;14.63;100.00
11936;BME280;6027;48.576;9.180;2022-07-06T04:45:50;97517.84;;;14.69;100.00
11936;BME280;6027;48.576;9.180;2022-07-06T04:48:16;97518.22;;;14.66;100.00
11936;BME280;6027;48.576;9.180;2022-07-06T04:50:41;97519.50;;;14.70;100.00
11936;BME280;6027;48.576;9.180;2022-07-06T04:53:06;97524.81;;;14.70;100.00
11936;BME280;6027;48.576;9.180;2022-07-06T04:55:32;97523.81;;;14.71;100.00
11936;BME280;6027;48.576;9.180;2022-07-06T04:57:57;97523.44;;;14.74;100.00
11936;BME280;6027;48.576;9.180;2022-07-06T05:00:23;97521.66;;;14.81;100.00
11936;BME280;6027;48.576;9.180;2022-07-06T05:02:49;97519.66;;;14.90;100.00
11936;BME280;6027;48.576;9.180;2022-07-06T05:05:14;97520.03;;;14.86;100.00
11936;BME280;6027;48.576;9.180;2022-07-06T05:07:39;97521.88;;;14.86;100.00
11936;BME280;6027;48.576;9.180;2022-07-06T05:10:09;97526.38;;;14.85;100.00
11936;BME280;6027;48.576;9.180;2022-07-06T05:12:35;97527.22;;;14.86;100.00
11936;BME280;6027;48.576;9.180;2022-07-06T05:15:01;97526.25;;;14.94;100.00
11936;BME280;6027;48.576;9.180;2022-07-06T05:17:27;97530.75;;;14.93;100.00
11936;BME280;6027;48.576;9.180;2022-07-06T05:19:52;97536.75;;;15.02;100.00
11936;BME280;6027;48.576;9.180;2022-07-06T05:22:18;97545.00;;;15.07;100.00
11936;BME280;6027;48.576;9.180;2022-07-06T05:24:44;97539.28;;;15.10;100.00
11936;BME280;6027;48.576;9.180;2022-07-06T05:27:09;97537.06;;;15.13;100.00
11936;BME280;6027;48.576;9.180;2022-07-06T05:29:35;97537.69;;;15.15;100.00
11936;BME280;6027;48.576;9.180;2022-07-06T05:32:00;97534.00;;;15.16;100.00
11936;BME280;6027;48.576;9.180;2022-07-06T05:34:26;97544.50;;;15.18;100.00
11936;BME280;6027;48.576;9.180;2022-07-06T05:36:51;97543.88;;;15.23;100.00
11936;BME280;6027;48.576;9.180;2022-07-06T05:39:17;97541.63;;;15.19;100.00
11936;BME280;6027;48.576;9.180;2022-07-06T05:41:46;97538.34;;;15.24;100.00
11936;BME280;6027;48.576;9.180;2022-07-06T05:44:12;97537.25;;;15.12;100.00
11936;BME280;6027;48.576;9.180;2022-07-06T05:46:38;97534.47;;;15.27;100.00
11936;BME280;6027;48.576;9.180;2022-07-06T05:49:03;97545.84;;;15.35;100.00
11936;BME280;6027;48.576;9.180;2022-07-06T05:51:47;97540.72;;;15.40;100.00
11936;BME280;6027;48.576;9.180;2022-07-06T05:54:14;97538.47;;;15.44;100.00
11936;BME280;6027;48.576;9.180;2022-07-06T05:56:40;97537.19;;;15.33;100.00
11936;BME280;6027;48.576;9.180;2022-07-06T05:59:05;97545.50;;;15.51;100.00
11936;BME280;6027;48.576;9.180;2022-07-06T06:01:31;97545.94;;;15.55;100.00
11936;BME280;6027;48.576;9.180;2022-07-06T06:03:56;97537.78;;;15.57;100.00
11936;BME280;6027;48.576;9.180;2022-07-06T06:06:22;97539.25;;;15.66;100.00
11936;BME280;6027;48.576;9.180;2022-07-06T06:08:47;97540.50;;;15.70;100.00
11936;BME280;6027;48.576;9.180;2022-07-06T06:11:12;97549.78;;;15.80;100.00
11936;BME280;6027;48.576;9.180;2022-07-06T06:13:38;97547.41;;;15.99;100.00
11936;BME280;6027;48.576;9.180;2022-07-06T06:16:04;97549.03;;;16.00;100.00
11936;BME280;6027;48.576;9.180;2022-07-06T06:18:29;97544.56;;;16.07;100.00
11936;BME280;6027;48.576;9.180;2022-07-06T06:20:54;97547.44;;;16.05;100.00
11936;BME280;6027;48.576;9.180;2022-07-06T06:23:20;97552.56;;;16.07;100.00
11936;BME280;6027;48.576;9.180;2022-07-06T06:25:45;97554.81;;;16.03;100.00
11936;BME280;6027;48.576;9.180;2022-07-06T06:28:11;97546.81;;;16.03;100.00
11936;BME280;6027;48.576;9.180;2022-07-06T06:30:37;97558.16;;;16.12;100.00
11936;BME280;6027;48.576;9.180;2022-07-06T06:33:13;97562.66;;;16.18;100.00
11936;BME280;6027;48.576;9.180;2022-07-06T06:35:50;97556.19;;;16.47;100.00
11936;BME280;6027;48.576;9.180;2022-07-06T06:38:17;97556.22;;;16.53;100.00
11936;BME280;6027;48.576;9.180;2022-07-06T06:40:43;97555.63;;;16.65;100.00
11936;BME280;6027;48.576;9.180;2022-07-06T06:43:09;97557.91;;;16.68;100.00
11936;BME280;6027;48.576;9.180;2022-07-06T06:45:35;97558.31;;;16.71;100.00
11936;BME280;6027;48.576;9.180;2022-07-06T06:48:00;97548.63;;;16.77;100.00
11936;BME280;6027;48.576;9.180;2022-07-06T06:50:26;97551.72;;;16.80;100.00
11936;BME280;6027;48.576;9.180;2022-07-06T06:52:51;97553.38;;;16.95;100.00
11936;BME280;6027;48.576;9.180;2022-07-06T06:55:17;97550.72;;;17.08;100.00
11936;BME280;6027;48.576;9.180;2022-07-06T06:57:43;97555.00;;;17.15;100.00
11936;BME280;6027;48.576;9.180;2022-07-06T07:00:10;97551.31;;;17.23;100.00
11936;BME280;6027;48.576;9.180;2022-07-06T07:02:35;97551.50;;;17.35;100.00
11936;BME280;6027;48.576;9.180;2022-07-06T07:05:02;97553.53;;;17.39;100.00
11936;BME280;6027;48.576;9.180;2022-07-06T07:07:28;97549.63;;;17.42;100.00
11936;BME280;6027;48.576;9.180;2022-07-06T07:09:53;97552.31;;;17.42;100.00
11936;BME280;6027;48.576;9.180;2022-07-06T07:12:19;97558.25;;;17.57;100.00
11936;BME280;6027;48.576;9.180;2022-07-06T07:14:44;97552.88;;;17.64;100.00
11936;BME280;6027;48.576;9.180;2022-07-06T07:17:10;97556.41;;;17.64;100.00
11936;BME280;6027;48.576;9.180;2022-07-06T07:19:37;97551.25;;;17.69;100.00
11936;BME280;6027;48.576;9.180;2022-07-06T07:22:03;97545.47;;;17.72;100.00
11936;BME280;6027;48.576;9.180;2022-07-06T07:24:28;97546.72;;;17.70;100.00
11936;BME280;6027;48.576;9.180;2022-07-06T07:26:54;97550.81;;;17.79;100.00
11936;BME280;6027;48.576;9.180;2022-07-06T07:29:19;97552.25;;;17.75;100.00
11936;BME280;6027;48.576;9.180;2022-07-06T07:31:45;97544.00;;;17.76;100.00
11936;BME280;6027;48.576;9.180;2022-07-06T07:34:11;97538.22;;;17.79;100.00
11936;BME280;6027;48.576;9.180;2022-07-06T07:36:36;97537.19;;;17.87;100.00
11936;BME280;6027;48.576;9.180;2022-07-06T07:39:02;97541.47;;;17.94;100.00
11936;BME280;6027;48.576;9.180;2022-07-06T07:41:28;97535.94;;;17.89;100.00
11936;BME280;6027;48.576;9.180;2022-07-06T07:43:53;97537.16;;;17.93;100.00
11936;BME280;6027;48.576;9.180;2022-07-06T07:46:19;97531.63;;;17.88;100.00
11936;BME280;6027;48.576;9.180;2022-07-06T07:48:44;97536.31;;;17.93;100.00
11936;BME280;6027;48.576;9.180;2022-07-06T07:51:10;97540.22;;;18.04;100.00
11936;BME280;6027;48.576;9.180;2022-07-06T07:53:35;97532.50;;;18.20;100.00
11936;BME280;6027;48.576;9.180;2022-07-06T07:56:00;97530.25;;;18.11;100.00
11936;BME280;6027;48.576;9.180;2022-07-06T07:58:26;97535.06;;;18.02;100.00
11936;BME280;6027;48.576;9.180;2022-07-06T08:00:52;97528.47;;;17.98;100.00
11936;BME280;6027;48.576;9.180;2022-07-06T08:03:18;97539.66;;;17.88;100.00
11936;BME280;6027;48.576;9.180;2022-07-06T08:05:43;97541.31;;;17.89;100.00
11936;BME280;6027;48.576;9.180;2022-07-06T08:08:09;97538.78;;;17.94;100.00
11936;BME280;6027;48.576;9.180;2022-07-06T08:10:34;97535.47;;;18.06;100.00
11936;BME280;6027;48.576;9.180;2022-07-06T08:13:00;97534.78;;;18.17;100.00
11936;BME280;6027;48.576;9.180;2022-07-06T08:15:25;97535.72;;;18.29;100.00
11936;BME280;6027;48.576;9.180;2022-07-06T08:17:51;97533.22;;;18.34;100.00
11936;BME280;6027;48.576;9.180;2022-07-06T08:20:16;97533.75;;;18.49;100.00
11936;BME280;6027;48.576;9.180;2022-07-06T08:22:42;97534.53;;;18.56;100.00
11936;BME280;6027;48.576;9.180;2022-07-06T08:25:09;97538.03;;;18.63;100.00
11936;BME280;6027;48.576;9.180;2022-07-06T08:27:34;97540.13;;;18.61;100.00
11936;BME280;6027;48.576;9.180;2022-07-06T08:30:00;97531.28;;;18.48;100.00
11936;BME280;6027;48.576;9.180;2022-07-06T08:32:26;97532.72;;;18.50;100.00
11936;BME280;6027;48.576;9.180;2022-07-06T08:34:51;97534.69;;;18.68;100.00
11936;BME280;6027;48.576;9.180;2022-07-06T08:37:18;97530.59;;;18.66;100.00
11936;BME280;6027;48.576;9.180;2022-07-06T08:39:44;97528.13;;;18.57;100.00
11936;BME280;6027;48.576;9.180;2022-07-06T08:42:11;97536.72;;;18.73;100.00
11936;BME280;6027;48.576;9.180;2022-07-06T08:44:37;97539.59;;;18.78;100.00
11936;BME280;6027;48.576;9.180;2022-07-06T08:47:05;97535.44;;;18.82;100.00
11936;BME280;6027;48.576;9.180;2022-07-06T08:49:32;97532.69;;;18.88;100.00
11936;BME280;6027;48.576;9.180;2022-07-06T08:51:59;97535.53;;;18.93;100.00
11936;BME280;6027;48.576;9.180;2022-07-06T08:54:26;97532.00;;;19.00;100.00
11936;BME280;6027;48.576;9.180;2022-07-06T08:56:52;97532.63;;;19.20;100.00
11936;BME280;6027;48.576;9.180;2022-07-06T08:59:17;97539.34;;;19.29;100.00
11936;BME280;6027;48.576;9.180;2022-07-06T09:01:44;97537.03;;;19.32;100.00
11936;BME280;6027;48.576;9.180;2022-07-06T09:04:12;97533.50;;;19.39;100.00
11936;BME280;6027;48.576;9.180;2022-07-06T09:06:39;97532.34;;;19.46;100.00
11936;BME280;6027;48.576;9.180;2022-07-06T09:09:07;97536.28;;;19.50;100.00
11936;BME280;6027;48.576;9.180;2022-07-06T09:11:32;97526.13;;;19.52;100.00
11936;BME280;6027;48.576;9.180;2022-07-06T09:13:58;97524.38;;;19.40;100.00
11936;BME280;6027;48.576;9.180;2022-07-06T09:16:28;97535.63;;;19.55;99.59
11936;BME280;6027;48.576;9.180;2022-07-06T09:18:54;97531.56;;;19.64;99.71
11936;BME280;6027;48.576;9.180;2022-07-06T09:21:29;97538.84;;;19.82;87.90
11936;BME280;6027;48.576;9.180;2022-07-06T09:23:59;97538.59;;;19.83;88.58
11936;BME280;6027;48.576;9.180;2022-07-06T09:26:25;97544.13;;;19.88;88.98
11936;BME280;6027;48.576;9.180;2022-07-06T09:28:51;97543.91;;;19.90;92.01
11936;BME280;6027;48.576;9.180;2022-07-06T09:31:17;97540.53;;;19.94;98.20
11936;BME280;6027;48.576;9.180;2022-07-06T09:34:03;97542.69;;;20.04;93.54
11936;BME280;6027;48.576;9.180;2022-07-06T09:36:43;97547.16;;;20.10;94.94
11936;BME280;6027;48.576;9.180;2022-07-06T09:39:19;97547.69;;;20.19;97.87
11936;BME280;6027;48.576;9.180;2022-07-06T09:41:47;97542.13;;;20.32;86.79
11936;BME280;6027;48.576;9.180;2022-07-06T09:44:12;97548.28;;;20.39;81.13
11936;BME280;6027;48.576;9.180;2022-07-06T09:46:42;97543.47;;;20.41;84.75
11936;BME280;6027;48.576;9.180;2022-07-06T09:49:08;97548.84;;;20.41;94.29
11936;BME280;6027;48.576;9.180;2022-07-06T09:51:38;97555.53;;;20.39;86.86
11936;BME280;6027;48.576;9.180;2022-07-06T09:54:06;97555.75;;;20.37;89.53
11936;BME280;6027;48.576;9.180;2022-07-06T09:56:40;97556.84;;;20.48;76.29
11936;BME280;6027;48.576;9.180;2022-07-06T09:59:13;97562.28;;;20.41;84.84
11936;BME280;6027;48.576;9.180;2022-07-06T10:01:39;97560.09;;;20.20;91.42
11936;BME280;6027;48.576;9.180;2022-07-06T10:04:06;97559.56;;;20.11;88.20
11936;BME280;6027;48.576;9.180;2022-07-06T10:06:32;97560.97;;;20.14;95.26
11936;BME280;6027;48.576;9.180;2022-07-06T10:08:58;97558.44;;;20.19;98.75
11936;BME280;6027;48.576;9.180;2022-07-06T10:11:24;97554.06;;;20.36;95.44
11936;BME280;6027;48.576;9.180;2022-07-06T10:13:54;97559.28;;;20.49;87.64
11936;BME280;6027;48.576;9.180;2022-07-06T10:16:22;97561.91;;;20.56;83.50
11936;BME280;6027;48.576;9.180;2022-07-06T10:18:48;97559.00;;;20.57;83.54
11936;BME280;6027;48.576;9.180;2022-07-06T10:21:17;97558.28;;;20.62;81.73
11936;BME280;6027;48.576;9.180;2022-07-06T10:23:43;97552.66;;;20.63;81.69
11936;BME280;6027;48.576;9.180;2022-07-06T10:26:09;97548.25;;;20.69;83.63
11936;BME280;6027;48.576;9.180;2022-07-06T10:28:35;97554.59;;;20.86;78.37
11936;BME280;6027;48.576;9.180;2022-07-06T10:31:01;97560.44;;;20.83;77.52
11936;BME280;6027;48.576;9.180;2022-07-06T10:33:27;97557.31;;;20.98;73.76
11936;BME280;6027;48.576;9.180;2022-07-06T10:35:53;97553.47;;;21.06;74.07
11936;BME280;6027;48.576;9.180;2022-07-06T10:38:30;97557.47;;;21.15;71.82
11936;BME280;6027;48.576;9.180;2022-07-06T10:41:04;97568.22;;;21.03;76.03
11936;BME280;6027;48.576;9.180;2022-07-06T10:43:38;97561.53;;;21.06;75.79
11936;BME280;6027;48.576;9.180;2022-07-06T10:46:11;97562.22;;;21.01;74.16
11936;BME280;6027;48.576;9.180;2022-07-06T10:48:45;97565.97;;;21.00;68.51
11936;BME280;6027;48.576;9.180;2022-07-06T10:51:12;97557.44;;;21.03;72.74
11936;BME280;6027;48.576;9.180;2022-07-06T10:53:58;97559.44;;;20.96;68.86
11936;BME280;6027;48.576;9.180;2022-07-06T10:56:42;97562.13;;;20.96;66.88
11936;BME280;6027;48.576;9.180;2022-07-06T10:59:15;97554.63;;;20.98;66.02
11936;BME280;6027;48.576;9.180;2022-07-06T11:02:16;97561.31;;;21.07;65.34
11936;BME280;6027;48.576;9.180;2022-07-06T11:04:46;97548.22;;;21.11;62.17
11936;BME280;6027;48.576;9.180;2022-07-06T11:07:14;97541.41;;;21.08;69.24
11936;BME280;6027;48.576;9.180;2022-07-06T11:09:40;97540.59;;;21.08;82.04
11936;BME280;6027;48.576;9.180;2022-07-06T11:12:19;97534.91;;;21.27;69.63
11936;BME280;6027;48.576;9.180;2022-07-06T11:14:50;97540.75;;;21.36;73.45
11936;BME280;6027;48.576;9.180;2022-07-06T11:17:16;97547.09;;;21.53;67.21
11936;BME280;6027;48.576;9.180;2022-07-06T11:19:50;97538.88;;;21.48;63.69
11936;BME280;6027;48.576;9.180;2022-07-06T11:22:16;97541.22;;;21.45;63.22
11936;BME280;6027;48.576;9.180;2022-07-06T11:24:45;97535.25;;;21.43;64.18
11936;BME280;6027;48.576;9.180;2022-07-06T11:27:11;97534.56;;;21.35;63.71
11936;BME280;6027;48.576;9.180;2022-07-06T11:29:37;97542.66;;;21.35;73.41
11936;BME280;6027;48.576;9.180;2022-07-06T11:32:06;97536.88;;;21.20;67.44
11936;BME280;6027;48.576;9.180;2022-07-06T11:34:36;97535.00;;;21.21;69.70
11936;BME280;6027;48.576;9.180;2022-07-06T11:37:05;97530.56;;;21.26;67.18
11936;BME280;6027;48.576;9.180;2022-07-06T11:39:34;97531.28;;;21.33;64.83
11936;BME280;6027;48.576;9.180;2022-07-06T11:42:02;97534.19;;;21.44;62.61
11936;BME280;6027;48.576;9.180;2022-07-06T11:44:29;97524.94;;;21.51;64.06
11936;BME280;6027;48.576;9.180;2022-07-06T11:46:55;97520.16;;;21.53;65.63
11936;BME280;6027;48.576;9.180;2022-07-06T11:49:23;97531.84;;;21.59;65.06
11936;BME280;6027;48.576;9.180;2022-07-06T11:51:48;97530.09;;;21.64;66.16
11936;BME280;6027;48.576;9.180;2022-07-06T11:54:18;97525.03;;;21.68;65.10
11936;BME280;6027;48.576;9.180;2022-07-06T11:56:56;97521.88;;;21.71;64.05
11936;BME280;6027;48.576;9.180;2022-07-06T11:59:30;97524.81;;;21.69;63.26
11936;BME280;6027;48.576;9.180;2022-07-06T12:02:12;97516.97;;;21.68;65.44
11936;BME280;6027;48.576;9.180;2022-07-06T12:04:40;97516.25;;;21.73;62.01
11936;BME280;6027;48.576;9.180;2022-07-06T12:07:16;97510.88;;;21.61;62.49
11936;BME280;6027;48.576;9.180;2022-07-06T12:09:47;97511.81;;;21.66;62.79
11936;BME280;6027;48.576;9.180;2022-07-06T12:12:13;97515.09;;;21.68;61.06
11936;BME280;6027;48.576;9.180;2022-07-06T12:14:40;97511.19;;;21.76;64.45
11936;BME280;6027;48.576;9.180;2022-07-06T12:17:07;97512.75;;;21.72;64.36
11936;BME280;6027;48.576;9.180;2022-07-06T12:19:34;97506.97;;;21.80;64.49
11936;BME280;6027;48.576;9.180;2022-07-06T12:22:00;97510.94;;;21.89;64.32
11936;BME280;6027;48.576;9.180;2022-07-06T12:24:28;97499.53;;;21.99;64.43
11936;BME280;6027;48.576;9.180;2022-07-06T12:26:56;97501.31;;;22.05;62.89
11936;BME280;6027;48.576;9.180;2022-07-06T12:29:22;97502.13;;;22.05;63.81
11936;BME280;6027;48.576;9.180;2022-07-06T12:31:51;97499.13;;;22.19;62.96
11936;BME280;6027;48.576;9.180;2022-07-06T12:36:57;97490.94;;;22.14;62.51
11936;BME280;6027;48.576;9.180;2022-07-06T12:39:24;97488.81;;;22.16;66.45
11936;BME280;6027;48.576;9.180;2022-07-06T12:42:04;97494.56;;;22.19;65.47
11936;BME280;6027;48.576;9.180;2022-07-06T12:44:48;97493.78;;;22.35;64.35
11936;BME280;6027;48.576;9.180;2022-07-06T12:47:18;97479.69;;;22.33;67.96
11936;BME280;6027;48.576;9.180;2022-07-06T12:49:44;97493.06;;;22.40;67.91
11936;BME280;6027;48.576;9.180;2022-07-06T12:52:13;97486.28;;;22.54;67.86
11936;BME280;6027;48.576;9.180;2022-07-06T12:54:44;97489.75;;;22.66;63.08
11936;BME280;6027;48.576;9.180;2022-07-06T12:59:45;97493.59;;;22.70;62.56
11936;BME280;6027;48.576;9.180;2022-07-06T13:02:22;97501.50;;;22.60;63.43
11936;BME280;6027;48.576;9.180;2022-07-06T13:05:10;97505.59;;;22.63;68.92
11936;BME280;6027;48.576;9.180;2022-07-06T13:07:38;97506.56;;;22.57;62.70